Weather reports worldwide

Advertisment
Herrera del Duque, Spain (8264): temperature & dewpoint: 24.10.2020 10:00:00 - 30.10.2020 10:00:00 (CET)Herrera del Duque, Spain (8264): wind speed & gusts: 24.10.2020 10:00:00 - 30.10.2020 10:00:00 (CET)Herrera del Duque, Spain (8264): wind direction: 24.10.2020 10:00:00 - 30.10.2020 10:00:00 (CET)Herrera del Duque, Spain (8264): reduced air pressure: 24.10.2020 10:00:00 - 30.10.2020 10:00:00 (CET)Herrera del Duque, Spain (8264): sunshine duration: 24.10.2020 10:00:00 - 30.10.2020 10:00:00 (CET)Herrera del Duque, Spain (8264): precipitation: 24.10.2020 10:00:00 - 30.10.2020 10:00:00 (CET)
Date & Time tt [°C] td [°C] ff [km/h] ff [kn] fx [km/h] fx [kn] dd ppp [hPa] sd [min] rr [mm]
30.10.2020 10:00:00 - - - - - - - - - -
30.10.2020 09:00:00 12,0 9,4 4 2 6 3 WNW 1027,3 44 0,0
30.10.2020 08:00:00 9,8 8,3 4 2 6 4 SW 1027,2 0 0,2
30.10.2020 07:00:00 9,8 8,3 4 2 7 4 SW 1027,0 0 -
30.10.2020 06:00:00 10,3 8,5 3 2 5 3 SW 1026,7 0 0,0
30.10.2020 05:00:00 10,3 8,4 4 2 5 3 SW 1026,7 0 0,0
30.10.2020 04:00:00 11,0 9,3 4 2 6 3 WSW 1026,6 0 0,0
30.10.2020 03:00:00 11,4 9,4 3 2 6 3 W 1026,5 0 0,0
30.10.2020 02:00:00 11,9 9,8 5 3 7 4 WSW 1026,4 0 0,0
30.10.2020 01:00:00 12,2 9,9 4 2 5 3 SW 1026,5 0 -
30.10.2020 00:00:00 12,6 9,8 3 2 5 3 SW 1026,7 0 0,0
29.10.2020 23:00:00 13,6 10,4 4 2 7 4 WSW 1026,5 0 0,0
29.10.2020 22:00:00 14,1 10,9 5 3 7 4 SW 1026,3 0 0,0
29.10.2020 21:00:00 14,5 11,1 5 3 7 4 SW 1025,9 0 0,0
29.10.2020 20:00:00 15,2 11,3 4 2 6 4 SW 1025,7 0 0,0
29.10.2020 19:00:00 - - - - - - - - - -
29.10.2020 18:00:00 20,2 11,9 4 2 12 6 NNW 1024,1 47 0,0
29.10.2020 17:00:00 22,3 11,3 5 3 14 7 N 1023,6 60 0,0
29.10.2020 16:00:00 22,3 11,7 6 4 14 7 NNE 1023,6 60 0,0
29.10.2020 15:00:00 21,3 11,3 6 4 16 9 NE 1023,8 60 0,0
29.10.2020 14:00:00 19,7 11,4 10 5 18 10 NE 1025,0 60 0,0
29.10.2020 13:00:00 18,5 11,3 11 6 19 10 E 1026,1 60 -
29.10.2020 12:00:00 17,4 11,2 10 5 16 9 NE 1027,2 60 0,0
29.10.2020 11:00:00 15,1 11,4 10 5 20 11 ENE 1027,7 45 0,0
29.10.2020 10:00:00 11,9 11,0 5 3 9 5 NNE 1028,4 0 0,0
29.10.2020 09:00:00 9,8 8,8 2 1 4 2 NNE 1028,4 0 0,0
29.10.2020 08:00:00 9,4 8,4 2 1 5 3 N 1027,8 0 0,0
29.10.2020 07:00:00 9,6 8,5 3 2 5 3 W 1027,0 0 -
29.10.2020 06:00:00 9,7 8,7 3 1 5 3 NNE 1026,7 0 0,0
29.10.2020 05:00:00 10,1 8,9 2 1 4 2 NW 1026,3 0 0,0
29.10.2020 04:00:00 10,3 9,0 0 0 4 2 N 1026,0 0 0,0
29.10.2020 03:00:00 10,2 8,7 1 1 5 3 W 1026,5 0 0,0
29.10.2020 02:00:00 10,7 8,9 5 3 5 3 WSW 1026,2 0 0,0
29.10.2020 01:00:00 10,9 8,8 1 1 6 3 E 1025,9 0 -
29.10.2020 00:00:00 11,7 9,6 3 1 6 4 S 1026,0 0 0,0
28.10.2020 23:00:00 12,4 9,8 4 2 8 4 SE 1025,6 0 0,0
28.10.2020 22:00:00 13,6 10,5 3 2 5 3 SSW 1025,4 0 0,0
28.10.2020 21:00:00 15,0 11,3 2 1 7 4 NE 1025,0 0 0,0
28.10.2020 20:00:00 15,0 11,2 4 2 12 6 SE 1024,8 0 0,0
28.10.2020 19:00:00 15,5 11,1 8 4 13 7 W 1023,8 0 -
28.10.2020 18:00:00 17,1 10,9 6 3 11 6 W 1022,9 36 0,0
28.10.2020 17:00:00 19,8 10,8 3 2 9 5 WSW 1021,9 60 0,0
28.10.2020 16:00:00 19,3 10,5 5 3 10 5 WNW 1022,2 60 0,0
28.10.2020 15:00:00 17,9 10,0 4 2 12 7 N 1022,9 55 0,0
28.10.2020 14:00:00 17,5 9,9 4 2 15 8 N 1023,5 55 0,0
28.10.2020 13:00:00 16,3 9,4 2 1 8 5 E 1024,0 4 -
28.10.2020 12:00:00 15,1 9,2 6 3 11 6 WNW 1024,6 0 0,0
28.10.2020 11:00:00 14,4 9,4 4 2 10 5 NW 1024,5 0 0,0
28.10.2020 10:00:00 13,8 9,3 2 1 6 4 WNW 1024,0 0 0,0
28.10.2020 09:00:00 13,2 9,4 4 2 8 4 N 1023,7 0 0,0
28.10.2020 08:00:00 12,9 8,5 5 3 8 4 SSW 1022,5 0 0,0
28.10.2020 07:00:00 12,4 8,7 3 2 6 3 SSW 1022,4 0 -
28.10.2020 06:00:00 12,0 9,0 1 1 4 2 NNE 1022,1 0 0,0
28.10.2020 05:00:00 12,0 8,7 2 1 4 2 S 1021,7 0 0,0
28.10.2020 04:00:00 11,9 8,8 2 1 5 3 N 1021,8 0 0,0
28.10.2020 03:00:00 11,6 8,1 2 1 6 3 WSW 1022,0 0 0,0
28.10.2020 02:00:00 10,3 7,6 2 1 4 2 SSW 1022,3 0 0,0
28.10.2020 01:00:00 10,7 7,6 1 1 7 4 ESE 1022,5 0 -
28.10.2020 00:00:00 10,8 7,0 2 1 9 5 E 1022,6 0 0,0
27.10.2020 23:00:00 12,2 6,8 8 4 14 7 WSW 1022,3 0 0,0
27.10.2020 22:00:00 11,8 6,8 4 2 9 5 SSW 1022,2 0 0,0
27.10.2020 21:00:00 12,4 6,8 7 4 11 6 SSW 1021,7 0 0,0
27.10.2020 20:00:00 13,3 7,3 6 3 14 8 SW 1021,7 0 0,0
27.10.2020 19:00:00 13,7 7,0 6 4 19 10 WSW 1021,4 0 -
27.10.2020 18:00:00 13,8 6,7 10 5 20 11 WSW 1021,4 16 0,0
27.10.2020 17:00:00 15,5 6,5 13 7 24 13 W 1020,9 53 0,0
27.10.2020 16:00:00 16,1 6,5 13 7 27 14 W 1020,6 53 0,0
27.10.2020 15:00:00 16,6 6,4 12 6 23 13 WSW 1020,6 60 0,0
27.10.2020 14:00:00 15,4 5,6 11 6 21 12 W 1021,2 60 0,0
27.10.2020 13:00:00 14,6 5,1 11 6 23 12 WSW 1021,9 60 -
27.10.2020 12:00:00 14,3 4,8 12 6 19 11 W 1022,5 60 0,0
27.10.2020 11:00:00 12,9 5,3 8 4 15 8 W 1022,8 60 0,0
27.10.2020 10:00:00 10,3 5,5 6 3 13 7 WNW 1023,3 48 0,0
27.10.2020 09:00:00 7,9 5,1 2 1 4 2 W 1023,7 5 0,0
27.10.2020 08:00:00 6,3 4,1 4 2 10 5 N 1023,4 0 0,0
27.10.2020 07:00:00 5,5 3,6 1 1 6 3 NE 1023,2 0 -
27.10.2020 06:00:00 5,2 3,0 2 1 6 3 SE 1023,1 0 0,0
27.10.2020 05:00:00 6,0 3,8 6 3 7 4 SW 1022,9 0 0,0
27.10.2020 04:00:00 5,8 3,2 3 2 7 4 NNW 1023,0 0 0,0
27.10.2020 03:00:00 6,3 3,6 4 2 9 5 SW 1023,2 0 0,0
27.10.2020 02:00:00 7,4 3,6 4 2 8 4 S 1023,1 0 0,0
27.10.2020 01:00:00 7,0 3,8 3 2 7 4 SW 1023,5 0 -
27.10.2020 00:00:00 7,9 3,8 3 2 7 4 WSW 1023,4 0 0,0
26.10.2020 23:00:00 9,2 3,0 4 2 7 4 S 1023,5 0 0,0
26.10.2020 22:00:00 9,3 3,2 3 2 10 5 WSW 1023,1 0 0,0
26.10.2020 21:00:00 10,6 2,9 8 5 14 7 SSW 1022,5 0 0,0
26.10.2020 20:00:00 10,8 3,6 4 2 9 5 W 1022,2 0 0,0
26.10.2020 19:00:00 11,7 3,2 8 4 14 8 S 1021,5 0 -
26.10.2020 18:00:00 13,6 3,0 9 5 22 12 W 1020,6 49 0,0
26.10.2020 17:00:00 15,0 2,9 13 7 23 12 WNW 1020,2 60 0,0
26.10.2020 16:00:00 15,2 2,7 11 6 23 12 W 1020,1 57 0,0
26.10.2020 15:00:00 14,8 2,7 12 6 24 13 W 1020,2 53 0,0
26.10.2020 14:00:00 14,5 2,5 15 8 27 15 WNW 1020,1 57 0,0
26.10.2020 13:00:00 14,2 3,6 11 6 24 13 WNW 1020,6 41 -
26.10.2020 12:00:00 12,7 4,5 10 6 22 12 W 1021,1 30 0,0
26.10.2020 11:00:00 12,1 4,6 13 7 25 13 WNW 1020,8 56 0,0
26.10.2020 10:00:00 11,5 5,6 10 6 17 9 WSW 1020,6 60 0,0
26.10.2020 09:00:00 10,1 5,6 12 7 26 14 W 1020,0 40 0,0
26.10.2020 08:00:00 8,8 5,5 13 7 30 16 W 1019,5 0 0,0
26.10.2020 07:00:00 9,2 6,2 12 6 29 16 W 1019,0 0 -
26.10.2020 06:00:00 9,1 6,2 14 7 24 13 W 1018,3 0 0,0
26.10.2020 05:00:00 9,3 6,2 12 6 27 15 W 1017,7 0 0,0
26.10.2020 04:00:00 9,6 6,1 16 8 35 19 W 1017,4 0 0,0
26.10.2020 03:00:00 10,5 7,0 18 10 35 19 W 1017,3 0 0,0
26.10.2020 02:00:00 11,3 7,6 20 11 35 19 W 1016,6 0 0,0
26.10.2020 01:00:00 11,7 8,1 18 10 34 18 W 1016,5 0 -
26.10.2020 00:00:00 11,8 8,5 12 6 29 15 W 1016,6 0 0,0
25.10.2020 23:00:00 12,5 9,3 19 11 37 20 W 1016,6 0 0,0
25.10.2020 22:00:00 12,6 9,6 16 9 40 21 W 1016,2 0 0,2
25.10.2020 21:00:00 13,1 11,0 15 8 27 15 W 1015,5 0 0,0
25.10.2020 20:00:00 12,5 10,4 17 9 39 21 WSW 1015,6 0 3,0
25.10.2020 19:00:00 14,2 11,9 23 13 42 23 W 1014,9 0 -
25.10.2020 18:00:00 14,4 12,1 18 10 35 19 SW 1014,7 0 2,6
25.10.2020 17:00:00 14,7 11,7 17 9 51 28 WSW 1015,0 0 1,4
25.10.2020 16:00:00 17,4 8,8 18 10 48 26 SW 1014,6 0 0,0
25.10.2020 15:00:00 17,4 9,0 18 10 37 20 SW 1015,2 0 0,0
25.10.2020 14:00:00 15,9 9,8 17 9 42 23 SW 1017,0 0 0,0
25.10.2020 13:00:00 16,0 10,0 22 12 44 24 SW 1018,1 0 -
25.10.2020 12:00:00 15,4 9,9 13 7 26 14 WSW 1019,0 4 0,0
25.10.2020 11:00:00 13,1 9,7 14 7 31 17 SW 1020,2 0 0,2
25.10.2020 10:00:00 14,0 8,1 15 8 31 17 SSW 1020,5 3 0,0
25.10.2020 09:00:00 12,9 7,7 11 6 26 14 SW 1021,0 0 0,0
25.10.2020 08:00:00 12,1 7,4 12 7 21 11 SSW 1020,5 0 0,0
25.10.2020 07:00:00 11,5 7,4 7 4 17 9 SSW 1021,1 0 -
25.10.2020 06:00:00 11,3 7,4 7 4 16 9 S 1021,2 0 0,0
25.10.2020 05:00:00 11,5 7,6 10 5 15 8 SW 1021,9 0 0,0
25.10.2020 04:00:00 11,8 7,6 5 3 14 7 SSW 1022,1 0 0,0
25.10.2020 03:00:00 11,6 7,6 5 3 11 6 WSW 1023,0 0 0,0
25.10.2020 02:00:00 11,6 7,3 5 3 11 6 SE 1023,4 0 0,0
25.10.2020 01:00:00 - - - - - - - - - -
25.10.2020 00:00:00 12,2 7,1 3 2 7 4 SW 1024,3 0 0,0
24.10.2020 23:00:00 11,5 6,8 1 1 9 5 N 1025,0 0 0,0
24.10.2020 22:00:00 12,2 7,1 2 1 10 6 SSE 1024,5 0 0,0
24.10.2020 21:00:00 13,0 6,8 7 4 11 6 SSW 1024,5 0 0,0
24.10.2020 20:00:00 13,3 7,1 6 3 12 6 SSW 1024,6 0 0,0
24.10.2020 19:00:00 14,2 7,4 6 4 13 7 SSW 1024,5 0 -
24.10.2020 18:00:00 15,9 7,7 9 5 16 9 WNW 1024,1 42 0,0
24.10.2020 17:00:00 17,5 8,1 8 4 20 11 W 1024,1 51 0,0
24.10.2020 16:00:00 17,7 8,5 10 6 22 12 WSW 1024,3 57 0,0
24.10.2020 15:00:00 18,0 7,7 11 6 25 14 WSW 1024,6 45 0,0
24.10.2020 14:00:00 17,5 8,9 11 6 21 11 WSW 1025,3 23 0,0
24.10.2020 13:00:00 - - - - - - - - - -
24.10.2020 12:00:00 13,3 11,3 3 2 9 5 WNW 1027,4 30 0,0
24.10.2020 11:00:00 11,0 9,9 4 2 7 4 N 1028,1 6 0,0
24.10.2020 10:00:00 9,4 8,4 2 1 5 3 SSW 1028,4 0 0,0

tt = temperature
td = dewpoint
ff = wind speed
fx = gusts
dd = wind direction
ppp = reduced air pressure
sd = sunshine duration
rr = precipitation

Next stations